sensor_id;sensor_type;location;lat;lon;timestamp;pressure;altitude;pressure_sealevel;temperature;humidity
60345;BME280;46188;52.324;8.032;2023-04-06T00:00:06;100768.75;;;1.29;79.73
60345;BME280;46188;52.324;8.032;2023-04-06T00:02:33;100768.00;;;1.32;79.42
60345;BME280;46188;52.324;8.032;2023-04-06T00:05:00;100765.66;;;1.37;79.53
60345;BME280;46188;52.324;8.032;2023-04-06T00:07:25;100761.34;;;1.37;79.17
60345;BME280;46188;52.324;8.032;2023-04-06T00:09:51;100760.63;;;1.40;79.32
60345;BME280;46188;52.324;8.032;2023-04-06T00:12:16;100764.19;;;1.42;79.32
60345;BME280;46188;52.324;8.032;2023-04-06T00:14:41;100757.22;;;1.41;79.19
60345;BME280;46188;52.324;8.032;2023-04-06T00:17:06;100751.28;;;1.43;79.32
60345;BME280;46188;52.324;8.032;2023-04-06T00:19:32;100749.34;;;1.39;79.27
60345;BME280;46188;52.324;8.032;2023-04-06T00:21:57;100748.34;;;1.37;79.42
60345;BME280;46188;52.324;8.032;2023-04-06T00:24:22;100747.38;;;1.35;79.40
60345;BME280;46188;52.324;8.032;2023-04-06T00:26:47;100749.00;;;1.33;79.46
60345;BME280;46188;52.324;8.032;2023-04-06T00:29:13;100747.06;;;1.29;80.06
60345;BME280;46188;52.324;8.032;2023-04-06T00:31:38;100748.59;;;1.25;80.13
60345;BME280;46188;52.324;8.032;2023-04-06T00:34:03;100742.34;;;1.22;79.84
60345;BME280;46188;52.324;8.032;2023-04-06T00:36:28;100742.19;;;1.19;79.80
60345;BME280;46188;52.324;8.032;2023-04-06T00:38:55;100738.53;;;1.15;80.24
60345;BME280;46188;52.324;8.032;2023-04-06T00:41:20;100736.53;;;1.09;80.62
60345;BME280;46188;52.324;8.032;2023-04-06T00:43:45;100728.50;;;1.05;80.98
60345;BME280;46188;52.324;8.032;2023-04-06T00:46:11;100731.97;;;1.05;80.77
60345;BME280;46188;52.324;8.032;2023-04-06T00:48:36;100729.38;;;1.05;80.68
60345;BME280;46188;52.324;8.032;2023-04-06T00:51:01;100735.22;;;1.01;81.18
60345;BME280;46188;52.324;8.032;2023-04-06T00:53:26;100734.00;;;0.95;81.52
60345;BME280;46188;52.324;8.032;2023-04-06T00:55:52;100734.00;;;0.95;81.35
60345;BME280;46188;52.324;8.032;2023-04-06T00:58:17;100727.09;;;0.95;81.70
60345;BME280;46188;52.324;8.032;2023-04-06T01:00:42;100724.66;;;0.98;81.57
60345;BME280;46188;52.324;8.032;2023-04-06T01:03:08;100709.00;;;0.97;81.84
60345;BME280;46188;52.324;8.032;2023-04-06T01:05:34;100711.44;;;0.94;81.34
60345;BME280;46188;52.324;8.032;2023-04-06T01:08:04;100715.75;;;0.93;81.50
60345;BME280;46188;52.324;8.032;2023-04-06T01:10:30;100705.28;;;0.91;81.54
60345;BME280;46188;52.324;8.032;2023-04-06T01:12:55;100704.44;;;0.92;81.43
60345;BME280;46188;52.324;8.032;2023-04-06T01:15:21;100703.41;;;0.89;81.47
60345;BME280;46188;52.324;8.032;2023-04-06T01:17:46;100696.34;;;0.86;81.56
60345;BME280;46188;52.324;8.032;2023-04-06T01:20:11;100690.91;;;0.82;82.11
60345;BME280;46188;52.324;8.032;2023-04-06T01:22:37;100695.84;;;0.77;81.96
60345;BME280;46188;52.324;8.032;2023-04-06T01:25:02;100686.59;;;0.82;82.02
60345;BME280;46188;52.324;8.032;2023-04-06T01:27:27;100689.13;;;0.81;81.72
60345;BME280;46188;52.324;8.032;2023-04-06T01:29:54;100687.66;;;0.86;81.73
60345;BME280;46188;52.324;8.032;2023-04-06T01:32:20;100680.97;;;0.89;81.35
60345;BME280;46188;52.324;8.032;2023-04-06T01:34:45;100685.56;;;0.95;81.15
60345;BME280;46188;52.324;8.032;2023-04-06T01:37:11;100681.50;;;1.00;80.89
60345;BME280;46188;52.324;8.032;2023-04-06T01:39:36;100682.63;;;1.05;80.70
60345;BME280;46188;52.324;8.032;2023-04-06T01:42:01;100674.22;;;1.09;80.64
60345;BME280;46188;52.324;8.032;2023-04-06T01:44:26;100674.31;;;1.11;80.06
60345;BME280;46188;52.324;8.032;2023-04-06T01:46:52;100664.78;;;1.12;80.55
60345;BME280;46188;52.324;8.032;2023-04-06T01:49:17;100670.44;;;1.21;79.55
60345;BME280;46188;52.324;8.032;2023-04-06T01:51:42;100679.16;;;1.21;79.77
60345;BME280;46188;52.324;8.032;2023-04-06T01:54:07;100674.19;;;1.26;79.36
60345;BME280;46188;52.324;8.032;2023-04-06T01:56:33;100662.81;;;1.24;79.65
60345;BME280;46188;52.324;8.032;2023-04-06T01:58:58;100666.00;;;1.18;79.54
60345;BME280;46188;52.324;8.032;2023-04-06T02:01:24;100666.72;;;1.16;79.29
60345;BME280;46188;52.324;8.032;2023-04-06T02:03:49;100667.47;;;1.13;79.70
60345;BME280;46188;52.324;8.032;2023-04-06T02:06:15;100663.75;;;1.08;79.92
60345;BME280;46188;52.324;8.032;2023-04-06T02:08:40;100662.53;;;1.01;79.78
60345;BME280;46188;52.324;8.032;2023-04-06T02:11:05;100658.94;;;0.99;80.08
60345;BME280;46188;52.324;8.032;2023-04-06T02:13:31;100658.81;;;0.96;79.88
60345;BME280;46188;52.324;8.032;2023-04-06T02:15:56;100659.84;;;1.00;80.00
60345;BME280;46188;52.324;8.032;2023-04-06T02:18:22;100657.34;;;1.01;80.06
60345;BME280;46188;52.324;8.032;2023-04-06T02:20:47;100650.84;;;0.93;80.21
60345;BME280;46188;52.324;8.032;2023-04-06T02:23:12;100650.03;;;0.94;80.55
60345;BME280;46188;52.324;8.032;2023-04-06T02:25:38;100655.38;;;0.97;80.27
60345;BME280;46188;52.324;8.032;2023-04-06T02:28:03;100658.66;;;0.93;80.19
60345;BME280;46188;52.324;8.032;2023-04-06T02:30:29;100651.03;;;0.96;79.72
60345;BME280;46188;52.324;8.032;2023-04-06T02:32:54;100649.31;;;0.97;79.42
60345;BME280;46188;52.324;8.032;2023-04-06T02:35:20;100642.31;;;0.96;80.07
60345;BME280;46188;52.324;8.032;2023-04-06T02:37:45;100639.09;;;1.00;79.66
60345;BME280;46188;52.324;8.032;2023-04-06T02:40:11;100637.28;;;0.99;79.21
60345;BME280;46188;52.324;8.032;2023-04-06T02:42:36;100643.44;;;1.01;79.17
60345;BME280;46188;52.324;8.032;2023-04-06T02:45:01;100639.97;;;1.00;79.34
60345;BME280;46188;52.324;8.032;2023-04-06T02:47:27;100639.09;;;1.00;78.86
60345;BME280;46188;52.324;8.032;2023-04-06T02:49:52;100641.94;;;1.04;79.23
60345;BME280;46188;52.324;8.032;2023-04-06T02:52:17;100636.66;;;1.03;79.00
60345;BME280;46188;52.324;8.032;2023-04-06T02:54:43;100637.38;;;1.00;79.20
60345;BME280;46188;52.324;8.032;2023-04-06T02:57:08;100638.19;;;0.99;79.39
60345;BME280;46188;52.324;8.032;2023-04-06T02:59:33;100633.97;;;1.01;78.89
60345;BME280;46188;52.324;8.032;2023-04-06T03:01:59;100629.44;;;0.97;78.89
60345;BME280;46188;52.324;8.032;2023-04-06T03:04:24;100635.44;;;0.96;79.05
60345;BME280;46188;52.324;8.032;2023-04-06T03:06:50;100630.88;;;0.92;79.12
60345;BME280;46188;52.324;8.032;2023-04-06T03:09:16;100634.38;;;0.92;79.06
60345;BME280;46188;52.324;8.032;2023-04-06T03:11:41;100632.69;;;0.93;79.26
60345;BME280;46188;52.324;8.032;2023-04-06T03:14:06;100633.41;;;0.90;78.99
60345;BME280;46188;52.324;8.032;2023-04-06T03:16:31;100635.53;;;0.81;79.17
60345;BME280;46188;52.324;8.032;2023-04-06T03:18:57;100633.81;;;0.82;78.99
60345;BME280;46188;52.324;8.032;2023-04-06T03:21:22;100635.47;;;0.80;79.04
60345;BME280;46188;52.324;8.032;2023-04-06T03:23:47;100629.94;;;0.73;79.59
60345;BME280;46188;52.324;8.032;2023-04-06T03:26:17;100630.81;;;0.74;79.15
60345;BME280;46188;52.324;8.032;2023-04-06T03:28:42;100625.53;;;0.72;79.49
60345;BME280;46188;52.324;8.032;2023-04-06T03:31:07;100634.00;;;0.68;79.45
60345;BME280;46188;52.324;8.032;2023-04-06T03:33:32;100630.00;;;0.59;80.35
60345;BME280;46188;52.324;8.032;2023-04-06T03:35:58;100632.19;;;0.51;80.86
60345;BME280;46188;52.324;8.032;2023-04-06T03:38:23;100633.63;;;0.46;80.86
60345;BME280;46188;52.324;8.032;2023-04-06T03:40:48;100635.97;;;0.41;81.15
60345;BME280;46188;52.324;8.032;2023-04-06T03:43:14;100627.06;;;0.36;82.01
60345;BME280;46188;52.324;8.032;2023-04-06T03:45:39;100635.84;;;0.23;82.38
60345;BME280;46188;52.324;8.032;2023-04-06T03:48:05;100633.56;;;0.13;83.02
60345;BME280;46188;52.324;8.032;2023-04-06T03:50:30;100637.59;;;0.08;83.14
60345;BME280;46188;52.324;8.032;2023-04-06T03:52:55;100639.69;;;-0.02;84.17
60345;BME280;46188;52.324;8.032;2023-04-06T03:55:21;100632.53;;;-0.06;84.22
60345;BME280;46188;52.324;8.032;2023-04-06T03:57:47;100633.09;;;-0.11;84.76
60345;BME280;46188;52.324;8.032;2023-04-06T04:00:13;100629.78;;;-0.09;84.86
60345;BME280;46188;52.324;8.032;2023-04-06T04:02:39;100634.06;;;-0.09;85.15
60345;BME280;46188;52.324;8.032;2023-04-06T04:05:04;100637.13;;;-0.16;85.85
60345;BME280;46188;52.324;8.032;2023-04-06T04:07:30;100637.06;;;-0.18;86.45
60345;BME280;46188;52.324;8.032;2023-04-06T04:09:55;100633.47;;;-0.20;86.65
60345;BME280;46188;52.324;8.032;2023-04-06T04:12:21;100635.97;;;-0.22;87.06
60345;BME280;46188;52.324;8.032;2023-04-06T04:14:46;100636.69;;;-0.24;87.42
60345;BME280;46188;52.324;8.032;2023-04-06T04:17:11;100633.75;;;-0.30;87.70
60345;BME280;46188;52.324;8.032;2023-04-06T04:19:37;100632.78;;;-0.32;87.87
60345;BME280;46188;52.324;8.032;2023-04-06T04:22:02;100631.06;;;-0.32;88.19
60345;BME280;46188;52.324;8.032;2023-04-06T04:24:31;100635.97;;;-0.37;88.61
60345;BME280;46188;52.324;8.032;2023-04-06T04:26:56;100633.25;;;-0.40;88.92
60345;BME280;46188;52.324;8.032;2023-04-06T04:29:22;100638.06;;;-0.46;89.26
60345;BME280;46188;52.324;8.032;2023-04-06T04:31:48;100626.88;;;-0.45;89.55
60345;BME280;46188;52.324;8.032;2023-04-06T04:34:14;100641.81;;;-0.41;89.09
60345;BME280;46188;52.324;8.032;2023-04-06T04:36:39;100636.88;;;-0.36;89.25
60345;BME280;46188;52.324;8.032;2023-04-06T04:39:07;100634.19;;;-0.23;88.54
60345;BME280;46188;52.324;8.032;2023-04-06T04:41:32;100634.56;;;-0.16;88.10
60345;BME280;46188;52.324;8.032;2023-04-06T04:43:57;100635.78;;;-0.10;87.80
60345;BME280;46188;52.324;8.032;2023-04-06T04:46:22;100629.88;;;-0.07;87.69
60345;BME280;46188;52.324;8.032;2023-04-06T04:48:48;100629.44;;;0.00;87.34
60345;BME280;46188;52.324;8.032;2023-04-06T04:51:13;100635.84;;;0.07;86.46
60345;BME280;46188;52.324;8.032;2023-04-06T04:53:38;100625.69;;;0.11;86.67
60345;BME280;46188;52.324;8.032;2023-04-06T04:56:03;100628.56;;;0.16;86.63
60345;BME280;46188;52.324;8.032;2023-04-06T04:58:29;100632.19;;;0.20;86.34
60345;BME280;46188;52.324;8.032;2023-04-06T05:00:54;100623.38;;;0.16;86.50
60345;BME280;46188;52.324;8.032;2023-04-06T05:03:22;100630.53;;;0.20;86.36
60345;BME280;46188;52.324;8.032;2023-04-06T05:05:48;100625.47;;;0.23;86.01
60345;BME280;46188;52.324;8.032;2023-04-06T05:08:13;100627.38;;;0.26;86.20
60345;BME280;46188;52.324;8.032;2023-04-06T05:10:38;100624.69;;;0.24;85.90
60345;BME280;46188;52.324;8.032;2023-04-06T05:13:03;100628.72;;;0.19;86.03
60345;BME280;46188;52.324;8.032;2023-04-06T05:15:29;100632.59;;;0.11;87.04
60345;BME280;46188;52.324;8.032;2023-04-06T05:17:55;100634.84;;;0.05;87.22
60345;BME280;46188;52.324;8.032;2023-04-06T05:20:20;100631.28;;;0.03;86.95
60345;BME280;46188;52.324;8.032;2023-04-06T05:22:45;100628.22;;;0.10;87.03
60345;BME280;46188;52.324;8.032;2023-04-06T05:25:11;100627.25;;;0.08;86.97
60345;BME280;46188;52.324;8.032;2023-04-06T05:27:36;100628.84;;;0.06;87.72
60345;BME280;46188;52.324;8.032;2023-04-06T05:30:01;100632.25;;;0.05;88.22
60345;BME280;46188;52.324;8.032;2023-04-06T05:32:27;100638.25;;;0.04;88.15
60345;BME280;46188;52.324;8.032;2023-04-06T05:34:53;100634.75;;;0.03;87.75
60345;BME280;46188;52.324;8.032;2023-04-06T05:37:18;100633.25;;;0.07;88.23
60345;BME280;46188;52.324;8.032;2023-04-06T05:39:43;100625.69;;;0.11;87.77
60345;BME280;46188;52.324;8.032;2023-04-06T05:42:08;100636.34;;;0.16;87.66
60345;BME280;46188;52.324;8.032;2023-04-06T05:44:34;100632.19;;;0.20;87.73
60345;BME280;46188;52.324;8.032;2023-04-06T05:47:00;100618.63;;;0.24;87.61
60345;BME280;46188;52.324;8.032;2023-04-06T05:49:25;100629.34;;;0.30;86.97
60345;BME280;46188;52.324;8.032;2023-04-06T05:51:51;100630.13;;;0.29;88.01
60345;BME280;46188;52.324;8.032;2023-04-06T05:54:16;100629.00;;;0.24;88.59
60345;BME280;46188;52.324;8.032;2023-04-06T05:56:41;100636.84;;;0.25;88.24
60345;BME280;46188;52.324;8.032;2023-04-06T05:59:07;100625.19;;;0.33;87.96
60345;BME280;46188;52.324;8.032;2023-04-06T06:01:33;100618.81;;;0.43;87.79
60345;BME280;46188;52.324;8.032;2023-04-06T06:04:03;100619.94;;;0.48;87.67
60345;BME280;46188;52.324;8.032;2023-04-06T06:06:28;100618.50;;;0.53;87.51
60345;BME280;46188;52.324;8.032;2023-04-06T06:08:55;100618.88;;;0.61;87.13
60345;BME280;46188;52.324;8.032;2023-04-06T06:11:23;100621.19;;;0.71;86.66
60345;BME280;46188;52.324;8.032;2023-04-06T06:13:49;100616.28;;;0.78;86.58
60345;BME280;46188;52.324;8.032;2023-04-06T06:16:15;100619.31;;;0.85;86.53
60345;BME280;46188;52.324;8.032;2023-04-06T06:18:40;100613.53;;;0.91;86.29
60345;BME280;46188;52.324;8.032;2023-04-06T06:21:05;100621.56;;;0.96;86.60
60345;BME280;46188;52.324;8.032;2023-04-06T06:23:30;100621.81;;;1.00;86.12
60345;BME280;46188;52.324;8.032;2023-04-06T06:25:56;100616.94;;;1.06;86.08
60345;BME280;46188;52.324;8.032;2023-04-06T06:28:23;100609.47;;;1.13;85.73
60345;BME280;46188;52.324;8.032;2023-04-06T06:30:50;100619.25;;;1.18;86.01
60345;BME280;46188;52.324;8.032;2023-04-06T06:33:15;100613.47;;;1.24;86.26
60345;BME280;46188;52.324;8.032;2023-04-06T06:35:42;100609.41;;;1.29;85.32
60345;BME280;46188;52.324;8.032;2023-04-06T06:38:07;100609.88;;;1.38;85.31
60345;BME280;46188;52.324;8.032;2023-04-06T06:40:33;100611.06;;;1.45;85.18
60345;BME280;46188;52.324;8.032;2023-04-06T06:42:58;100611.47;;;1.53;85.13
60345;BME280;46188;52.324;8.032;2023-04-06T06:45:23;100613.63;;;1.61;84.36
60345;BME280;46188;52.324;8.032;2023-04-06T06:47:50;100614.09;;;1.71;84.43
60345;BME280;46188;52.324;8.032;2023-04-06T06:50:15;100609.25;;;1.78;84.51
60345;BME280;46188;52.324;8.032;2023-04-06T06:52:40;100607.09;;;1.88;83.58
60345;BME280;46188;52.324;8.032;2023-04-06T06:55:08;100603.16;;;1.96;82.98
60345;BME280;46188;52.324;8.032;2023-04-06T06:57:33;100602.69;;;2.05;82.63
60345;BME280;46188;52.324;8.032;2023-04-06T06:59:58;100602.22;;;2.13;82.57
60345;BME280;46188;52.324;8.032;2023-04-06T07:02:25;100597.53;;;2.24;81.91
60345;BME280;46188;52.324;8.032;2023-04-06T07:04:50;100597.94;;;2.33;81.98
60345;BME280;46188;52.324;8.032;2023-04-06T07:07:15;100603.66;;;2.44;81.90
60345;BME280;46188;52.324;8.032;2023-04-06T07:09:41;100613.81;;;2.57;81.71
60345;BME280;46188;52.324;8.032;2023-04-06T07:12:06;100599.56;;;2.69;80.09
60345;BME280;46188;52.324;8.032;2023-04-06T07:14:31;100606.28;;;2.83;80.05
60345;BME280;46188;52.324;8.032;2023-04-06T07:16:57;100598.13;;;2.95;79.38
60345;BME280;46188;52.324;8.032;2023-04-06T07:19:22;100592.47;;;3.05;78.40
60345;BME280;46188;52.324;8.032;2023-04-06T07:21:47;100594.66;;;3.16;77.44
60345;BME280;46188;52.324;8.032;2023-04-06T07:24:14;100599.34;;;3.24;77.17
60345;BME280;46188;52.324;8.032;2023-04-06T07:26:39;100597.41;;;3.40;77.50
60345;BME280;46188;52.324;8.032;2023-04-06T07:29:05;100601.38;;;3.51;77.10
60345;BME280;46188;52.324;8.032;2023-04-06T07:31:30;100601.03;;;3.64;77.18
60345;BME280;46188;52.324;8.032;2023-04-06T07:33:56;100599.66;;;3.73;77.78
60345;BME280;46188;52.324;8.032;2023-04-06T07:36:21;100600.94;;;3.84;77.29
60345;BME280;46188;52.324;8.032;2023-04-06T07:38:46;100597.91;;;3.94;76.44
60345;BME280;46188;52.324;8.032;2023-04-06T07:41:12;100600.16;;;4.07;76.21
60345;BME280;46188;52.324;8.032;2023-04-06T07:43:37;100591.84;;;4.18;75.98
60345;BME280;46188;52.324;8.032;2023-04-06T07:46:03;100597.53;;;4.30;76.13
60345;BME280;46188;52.324;8.032;2023-04-06T07:48:28;100588.34;;;4.40;74.68
60345;BME280;46188;52.324;8.032;2023-04-06T07:51:00;100585.34;;;4.53;74.83
60345;BME280;46188;52.324;8.032;2023-04-06T07:53:26;100588.47;;;4.67;74.93
60345;BME280;46188;52.324;8.032;2023-04-06T07:55:51;100595.13;;;4.83;74.26
60345;BME280;46188;52.324;8.032;2023-04-06T07:58:16;100583.53;;;4.99;74.06
60345;BME280;46188;52.324;8.032;2023-04-06T08:00:42;100583.38;;;5.20;73.79
60345;BME280;46188;52.324;8.032;2023-04-06T08:03:07;100591.97;;;5.42;73.50
60345;BME280;46188;52.324;8.032;2023-04-06T08:05:32;100590.00;;;5.62;72.30
60345;BME280;46188;52.324;8.032;2023-04-06T08:07:57;100584.59;;;5.83;72.17
60345;BME280;46188;52.324;8.032;2023-04-06T08:10:23;100593.97;;;6.03;70.67
60345;BME280;46188;52.324;8.032;2023-04-06T08:12:48;100587.56;;;6.21;70.20
60345;BME280;46188;52.324;8.032;2023-04-06T08:15:13;100580.28;;;6.41;70.08
60345;BME280;46188;52.324;8.032;2023-04-06T08:17:38;100587.66;;;6.54;67.92
60345;BME280;46188;52.324;8.032;2023-04-06T08:20:04;100578.41;;;6.65;67.78
60345;BME280;46188;52.324;8.032;2023-04-06T08:22:29;100585.19;;;6.91;67.68
60345;BME280;46188;52.324;8.032;2023-04-06T08:24:54;100580.50;;;7.11;66.84
60345;BME280;46188;52.324;8.032;2023-04-06T08:27:20;100580.94;;;7.28;66.74
60345;BME280;46188;52.324;8.032;2023-04-06T08:29:45;100583.06;;;7.43;66.60
60345;BME280;46188;52.324;8.032;2023-04-06T08:32:10;100586.09;;;7.60;66.21
60345;BME280;46188;52.324;8.032;2023-04-06T08:34:36;100585.72;;;7.79;65.77
60345;BME280;46188;52.324;8.032;2023-04-06T08:37:01;100580.94;;;7.99;65.15
60345;BME280;46188;52.324;8.032;2023-04-06T08:39:27;100578.88;;;8.24;64.88
60345;BME280;46188;52.324;8.032;2023-04-06T08:41:53;100581.13;;;8.45;64.44
60345;BME280;46188;52.324;8.032;2023-04-06T08:44:22;100573.59;;;8.63;63.87
60345;BME280;46188;52.324;8.032;2023-04-06T08:46:47;100573.94;;;8.79;63.53
60345;BME280;46188;52.324;8.032;2023-04-06T08:49:14;100574.25;;;8.96;62.52
60345;BME280;46188;52.324;8.032;2023-04-06T08:51:39;100575.38;;;9.09;62.07
60345;BME280;46188;52.324;8.032;2023-04-06T08:54:05;100566.06;;;9.28;61.37
60345;BME280;46188;52.324;8.032;2023-04-06T08:56:30;100560.06;;;9.35;60.79
60345;BME280;46188;52.324;8.032;2023-04-06T08:58:56;100565.53;;;9.47;59.98
60345;BME280;46188;52.324;8.032;2023-04-06T09:01:23;100560.50;;;9.61;59.47
60345;BME280;46188;52.324;8.032;2023-04-06T09:03:51;100554.50;;;9.70;58.46
60345;BME280;46188;52.324;8.032;2023-04-06T09:06:18;100554.75;;;9.85;57.81
60345;BME280;46188;52.324;8.032;2023-04-06T09:08:43;100557.47;;;9.91;56.72
60345;BME280;46188;52.324;8.032;2023-04-06T09:11:09;100565.63;;;10.10;56.34
60345;BME280;46188;52.324;8.032;2023-04-06T09:13:51;100562.41;;;10.29;55.40
60345;BME280;46188;52.324;8.032;2023-04-06T09:16:17;100553.56;;;10.27;53.93
60345;BME280;46188;52.324;8.032;2023-04-06T09:18:43;100548.56;;;10.43;53.09
60345;BME280;46188;52.324;8.032;2023-04-06T09:21:08;100549.56;;;10.54;51.93
60345;BME280;46188;52.324;8.032;2023-04-06T09:23:34;100552.28;;;10.60;51.70
60345;BME280;46188;52.324;8.032;2023-04-06T09:26:08;100543.66;;;10.75;50.81
60345;BME280;46188;52.324;8.032;2023-04-06T09:28:47;100549.09;;;10.87;50.06
60345;BME280;46188;52.324;8.032;2023-04-06T09:31:35;100546.56;;;11.00;49.88
60345;BME280;46188;52.324;8.032;2023-04-06T09:34:00;100551.00;;;11.02;48.75
60345;BME280;46188;52.324;8.032;2023-04-06T09:36:30;100539.78;;;11.25;49.21
60345;BME280;46188;52.324;8.032;2023-04-06T09:39:02;100533.75;;;11.41;48.68
60345;BME280;46188;52.324;8.032;2023-04-06T09:41:29;100537.44;;;11.59;48.41
60345;BME280;46188;52.324;8.032;2023-04-06T09:44:11;100536.69;;;11.81;48.32
60345;BME280;46188;52.324;8.032;2023-04-06T09:46:41;100535.97;;;11.98;47.92
60345;BME280;46188;52.324;8.032;2023-04-06T09:49:08;100529.75;;;11.91;46.96
60345;BME280;46188;52.324;8.032;2023-04-06T09:51:40;100538.47;;;11.82;46.20
60345;BME280;46188;52.324;8.032;2023-04-06T09:54:07;100526.13;;;11.77;45.45
60345;BME280;46188;52.324;8.032;2023-04-06T09:56:59;100523.50;;;11.83;44.98
60345;BME280;46188;52.324;8.032;2023-04-06T10:02:39;100521.06;;;12.09;44.38
60345;BME280;46188;52.324;8.032;2023-04-06T10:05:12;100515.00;;;12.29;44.68
60345;BME280;46188;52.324;8.032;2023-04-06T10:07:41;100521.06;;;12.11;43.40
60345;BME280;46188;52.324;8.032;2023-04-06T10:10:08;100517.50;;;12.03;44.14
60345;BME280;46188;52.324;8.032;2023-04-06T10:12:35;100524.66;;;12.21;44.31
60345;BME280;46188;52.324;8.032;2023-04-06T10:15:01;100523.81;;;12.25;43.81
60345;BME280;46188;52.324;8.032;2023-04-06T10:17:26;100513.34;;;12.48;44.07
60345;BME280;46188;52.324;8.032;2023-04-06T10:20:01;100531.00;;;12.64;44.26
60345;BME280;46188;52.324;8.032;2023-04-06T10:22:41;100527.41;;;12.45;43.00
60345;BME280;46188;52.324;8.032;2023-04-06T10:25:08;100522.16;;;12.53;42.50
60345;BME280;46188;52.324;8.032;2023-04-06T10:27:34;100523.94;;;12.60;42.97
60345;BME280;46188;52.324;8.032;2023-04-06T10:30:06;100528.44;;;12.81;43.46
60345;BME280;46188;52.324;8.032;2023-04-06T10:32:36;100522.31;;;13.13;43.23
60345;BME280;46188;52.324;8.032;2023-04-06T10:35:05;100517.03;;;13.21;42.71
60345;BME280;46188;52.324;8.032;2023-04-06T10:37:45;100518.78;;;13.13;42.75
60345;BME280;46188;52.324;8.032;2023-04-06T10:40:19;100510.84;;;13.19;43.08
60345;BME280;46188;52.324;8.032;2023-04-06T10:42:44;100520.56;;;13.20;42.14
60345;BME280;46188;52.324;8.032;2023-04-06T10:45:19;100514.34;;;13.10;41.95
60345;BME280;46188;52.324;8.032;2023-04-06T10:47:45;100507.28;;;13.10;41.66
60345;BME280;46188;52.324;8.032;2023-04-06T10:50:14;100502.03;;;13.26;42.49
60345;BME280;46188;52.324;8.032;2023-04-06T10:52:40;100505.59;;;13.50;42.15
60345;BME280;46188;52.324;8.032;2023-04-06T10:55:06;100503.81;;;13.59;41.98
60345;BME280;46188;52.324;8.032;2023-04-06T10:57:33;100499.41;;;13.58;41.69
60345;BME280;46188;52.324;8.032;2023-04-06T10:59:59;100495.88;;;13.65;41.07
60345;BME280;46188;52.324;8.032;2023-04-06T11:02:24;100497.63;;;13.40;40.04
60345;BME280;46188;52.324;8.032;2023-04-06T11:04:56;100504.72;;;13.40;40.73
60345;BME280;46188;52.324;8.032;2023-04-06T11:07:28;100502.06;;;13.43;39.83
60345;BME280;46188;52.324;8.032;2023-04-06T11:09:55;100497.63;;;13.39;40.74
60345;BME280;46188;52.324;8.032;2023-04-06T11:12:23;100491.47;;;13.47;39.86
60345;BME280;46188;52.324;8.032;2023-04-06T11:14:59;100487.06;;;13.51;40.69
60345;BME280;46188;52.324;8.032;2023-04-06T11:17:30;100481.72;;;13.63;40.60
60345;BME280;46188;52.324;8.032;2023-04-06T11:19:57;100493.19;;;13.79;40.51
60345;BME280;46188;52.324;8.032;2023-04-06T11:22:22;100482.59;;;13.69;40.95
60345;BME280;46188;52.324;8.032;2023-04-06T11:24:48;100485.28;;;13.67;40.64
60345;BME280;46188;52.324;8.032;2023-04-06T11:27:17;100488.81;;;13.71;40.67
60345;BME280;46188;52.324;8.032;2023-04-06T11:29:42;100479.94;;;13.81;40.94
60345;BME280;46188;52.324;8.032;2023-04-06T11:32:08;100474.59;;;14.02;41.20
60345;BME280;46188;52.324;8.032;2023-04-06T11:34:36;100482.53;;;14.09;40.97
60345;BME280;46188;52.324;8.032;2023-04-06T11:37:07;100484.31;;;13.99;41.57
60345;BME280;46188;52.324;8.032;2023-04-06T11:39:38;100471.94;;;14.04;41.46
60345;BME280;46188;52.324;8.032;2023-04-06T11:42:04;100468.34;;;14.20;41.16
60345;BME280;46188;52.324;8.032;2023-04-06T11:47:05;100460.47;;;13.99;40.21
60345;BME280;46188;52.324;8.032;2023-04-06T11:49:32;100467.47;;;14.14;39.91
60345;BME280;46188;52.324;8.032;2023-04-06T11:51:59;100470.16;;;14.00;39.05
60345;BME280;46188;52.324;8.032;2023-04-06T11:54:35;100456.03;;;14.04;39.17
60345;BME280;46188;52.324;8.032;2023-04-06T11:57:03;100460.41;;;14.14;39.28
60345;BME280;46188;52.324;8.032;2023-04-06T11:59:28;100455.94;;;14.24;39.28
60345;BME280;46188;52.324;8.032;2023-04-06T12:01:54;100453.28;;;14.26;38.82
60345;BME280;46188;52.324;8.032;2023-04-06T12:04:20;100440.03;;;14.29;39.24
60345;BME280;46188;52.324;8.032;2023-04-06T12:06:46;100447.97;;;14.32;38.70
60345;BME280;46188;52.324;8.032;2023-04-06T12:09:11;100450.53;;;14.49;38.34
60345;BME280;46188;52.324;8.032;2023-04-06T12:11:36;100454.06;;;14.48;37.03
60345;BME280;46188;52.324;8.032;2023-04-06T12:14:02;100449.59;;;14.53;36.12
60345;BME280;46188;52.324;8.032;2023-04-06T12:16:30;100450.53;;;14.49;34.97
60345;BME280;46188;52.324;8.032;2023-04-06T12:18:55;100451.41;;;14.48;35.41
60345;BME280;46188;52.324;8.032;2023-04-06T12:21:21;100442.56;;;14.50;35.19
60345;BME280;46188;52.324;8.032;2023-04-06T12:23:46;100455.84;;;14.46;35.10
60345;BME280;46188;52.324;8.032;2023-04-06T12:26:11;100451.50;;;14.26;33.67
60345;BME280;46188;52.324;8.032;2023-04-06T12:28:36;100448.84;;;14.26;34.17
60345;BME280;46188;52.324;8.032;2023-04-06T12:31:02;100450.63;;;14.30;35.21
60345;BME280;46188;52.324;8.032;2023-04-06T12:33:27;100445.34;;;14.26;35.37
60345;BME280;46188;52.324;8.032;2023-04-06T12:35:52;100433.88;;;14.22;35.06
60345;BME280;46188;52.324;8.032;2023-04-06T12:38:17;100447.16;;;14.11;34.86
60345;BME280;46188;52.324;8.032;2023-04-06T12:40:43;100448.06;;;14.13;35.29
60345;BME280;46188;52.324;8.032;2023-04-06T12:43:08;100447.03;;;14.37;35.61
60345;BME280;46188;52.324;8.032;2023-04-06T12:45:34;100447.13;;;14.19;35.52
60345;BME280;46188;52.324;8.032;2023-04-06T12:47:59;100444.50;;;14.08;35.65
60345;BME280;46188;52.324;8.032;2023-04-06T12:50:24;100444.50;;;14.10;35.40
60345;BME280;46188;52.324;8.032;2023-04-06T12:52:51;100442.78;;;14.02;35.60
60345;BME280;46188;52.324;8.032;2023-04-06T12:55:16;100434.84;;;13.99;35.40
60345;BME280;46188;52.324;8.032;2023-04-06T12:57:42;100442.84;;;13.89;36.01